Accueil
METAR-TAF:

METAR-TAF

Aéroports :

Wake Island, États-Unis

latitude: 19-17N, longitude: 166-39E, altitude: 4 m

Observation

Le bulletin a été fait il y a 26 minutes, à 21:58 UTC
Vent 12 kt de est/nord-est
Température 30°C
Humidité 79%
Pression 1018 hPa
Visibilité 10 km ou plus
Quelques nuages à une hauteur de 2100 ft

METAR: PWAK 232158Z AUTO 06012KT 9999 FEW021 30/26 A3006 RMK AO2 SLP186

Heure: 10:24 (22:24 UTC)

Prévision

Le bulletin a été fait il y a 24 minutes, à 22:00 UTC
Prévision valable du 23 à 22 UTC au 25 à 04 UTC
Vent 12 kt de est
Visibilité 10 km ou plus
Nuages épars à une hauteur de 1500 ft

TAF: PWAK 232200Z 2322/2504 09012KT 9999 SCT015 QNH2997INS TX30/2403Z TN27/2414Z

Observations et prévisions météorologiques de plus de 4000 aéroports (messages METAR et TAF).

Les stations disponibles sont représentées par des disques jaunes et rouges sur la carte.

Passer la souris dessus pour voir le nom de la station.

Cliquer dessus pour voir les observations et prévisions météorologiques.

Pour changer de carte: cliquez sur les boutons verts avec une croix noire pour zoomer, sur le bouton vert avec un tiret pour effectuer un zoom arrière, ou sur les flèches vertes pour les cartes adjacentes.


METAR-TAF: